sensor_id;sensor_type;location;lat;lon;timestamp;P1;durP1;ratioP1;P2;durP2;ratioP2
75626;SDS011;64211;49.404;11.034;2022-11-27T00:00:44;13.82;;;6.57;;
75626;SDS011;64211;49.404;11.034;2022-11-27T00:03:10;13.07;;;5.68;;
75626;SDS011;64211;49.404;11.034;2022-11-27T00:05:37;13.38;;;6.05;;
75626;SDS011;64211;49.404;11.034;2022-11-27T00:08:03;13.88;;;5.85;;
75626;SDS011;64211;49.404;11.034;2022-11-27T00:10:30;15.25;;;6.15;;
75626;SDS011;64211;49.404;11.034;2022-11-27T00:12:56;17.58;;;5.65;;
75626;SDS011;64211;49.404;11.034;2022-11-27T00:15:23;16.13;;;6.75;;
75626;SDS011;64211;49.404;11.034;2022-11-27T00:17:49;16.25;;;5.82;;
75626;SDS011;64211;49.404;11.034;2022-11-27T00:20:15;16.40;;;6.07;;
75626;SDS011;64211;49.404;11.034;2022-11-27T00:22:42;21.65;;;6.85;;
75626;SDS011;64211;49.404;11.034;2022-11-27T00:25:08;23.92;;;6.70;;
75626;SDS011;64211;49.404;11.034;2022-11-27T00:27:35;16.25;;;6.18;;
75626;SDS011;64211;49.404;11.034;2022-11-27T00:30:01;16.75;;;5.78;;
75626;SDS011;64211;49.404;11.034;2022-11-27T00:32:27;19.02;;;6.20;;
75626;SDS011;64211;49.404;11.034;2022-11-27T00:34:54;15.07;;;5.82;;
75626;SDS011;64211;49.404;11.034;2022-11-27T00:37:20;15.63;;;5.90;;
75626;SDS011;64211;49.404;11.034;2022-11-27T00:39:47;14.23;;;5.85;;
75626;SDS011;64211;49.404;11.034;2022-11-27T00:42:13;12.88;;;5.82;;
75626;SDS011;64211;49.404;11.034;2022-11-27T00:44:39;19.67;;;5.85;;
75626;SDS011;64211;49.404;11.034;2022-11-27T00:47:06;12.35;;;5.35;;
75626;SDS011;64211;49.404;11.034;2022-11-27T00:49:33;16.63;;;6.55;;
75626;SDS011;64211;49.404;11.034;2022-11-27T00:51:59;13.48;;;5.90;;
75626;SDS011;64211;49.404;11.034;2022-11-27T00:54:25;17.88;;;6.50;;
75626;SDS011;64211;49.404;11.034;2022-11-27T00:56:52;13.02;;;5.90;;
75626;SDS011;64211;49.404;11.034;2022-11-27T00:59:18;14.10;;;6.18;;
75626;SDS011;64211;49.404;11.034;2022-11-27T01:01:45;15.05;;;5.50;;
75626;SDS011;64211;49.404;11.034;2022-11-27T01:04:13;9.10;;;4.88;;
75626;SDS011;64211;49.404;11.034;2022-11-27T01:06:41;9.75;;;4.65;;
75626;SDS011;64211;49.404;11.034;2022-11-27T01:09:08;16.38;;;5.05;;
75626;SDS011;64211;49.404;11.034;2022-11-27T01:11:36;13.05;;;4.97;;
75626;SDS011;64211;49.404;11.034;2022-11-27T01:14:04;15.15;;;5.55;;
75626;SDS011;64211;49.404;11.034;2022-11-27T01:16:33;11.57;;;5.05;;
75626;SDS011;64211;49.404;11.034;2022-11-27T01:19:03;12.43;;;5.32;;
75626;SDS011;64211;49.404;11.034;2022-11-27T01:21:30;10.73;;;4.10;;
75626;SDS011;64211;49.404;11.034;2022-11-27T01:23:59;9.23;;;4.25;;
75626;SDS011;64211;49.404;11.034;2022-11-27T01:26:27;8.75;;;3.78;;
75626;SDS011;64211;49.404;11.034;2022-11-27T01:28:54;11.80;;;4.97;;
75626;SDS011;64211;49.404;11.034;2022-11-27T01:31:24;10.55;;;4.35;;
75626;SDS011;64211;49.404;11.034;2022-11-27T01:33:55;10.63;;;4.40;;
75626;SDS011;64211;49.404;11.034;2022-11-27T01:36:22;9.02;;;3.88;;
75626;SDS011;64211;49.404;11.034;2022-11-27T01:38:49;9.75;;;4.18;;
75626;SDS011;64211;49.404;11.034;2022-11-27T01:41:17;8.77;;;4.10;;
75626;SDS011;64211;49.404;11.034;2022-11-27T01:46:34;9.05;;;4.32;;
75626;SDS011;64211;49.404;11.034;2022-11-27T01:51:38;9.60;;;4.03;;
75626;SDS011;64211;49.404;11.034;2022-11-27T01:54:09;8.27;;;4.00;;
75626;SDS011;64211;49.404;11.034;2022-11-27T01:56:36;9.63;;;4.13;;
75626;SDS011;64211;49.404;11.034;2022-11-27T01:59:05;11.40;;;3.92;;
75626;SDS011;64211;49.404;11.034;2022-11-27T02:01:32;8.50;;;3.65;;
75626;SDS011;64211;49.404;11.034;2022-11-27T02:03:59;11.02;;;4.13;;
75626;SDS011;64211;49.404;11.034;2022-11-27T02:06:27;11.00;;;3.85;;
75626;SDS011;64211;49.404;11.034;2022-11-27T02:08:54;12.65;;;4.07;;
75626;SDS011;64211;49.404;11.034;2022-11-27T02:11:25;9.07;;;3.78;;
75626;SDS011;64211;49.404;11.034;2022-11-27T02:17:11;10.65;;;4.47;;
75626;SDS011;64211;49.404;11.034;2022-11-27T02:22:44;8.75;;;4.13;;
75626;SDS011;64211;49.404;11.034;2022-11-27T02:25:16;10.88;;;4.00;;
75626;SDS011;64211;49.404;11.034;2022-11-27T02:30:49;9.25;;;4.03;;
75626;SDS011;64211;49.404;11.034;2022-11-27T02:33:21;10.00;;;4.13;;
75626;SDS011;64211;49.404;11.034;2022-11-27T02:35:50;11.05;;;3.97;;
75626;SDS011;64211;49.404;11.034;2022-11-27T02:38:29;10.88;;;4.75;;
75626;SDS011;64211;49.404;11.034;2022-11-27T02:41:04;10.77;;;4.57;;
75626;SDS011;64211;49.404;11.034;2022-11-27T02:43:39;11.57;;;4.13;;
75626;SDS011;64211;49.404;11.034;2022-11-27T02:46:08;8.50;;;3.95;;
75626;SDS011;64211;49.404;11.034;2022-11-27T02:48:48;9.85;;;4.00;;
75626;SDS011;64211;49.404;11.034;2022-11-27T02:51:16;10.55;;;4.13;;
75626;SDS011;64211;49.404;11.034;2022-11-27T02:53:57;11.80;;;4.72;;
75626;SDS011;64211;49.404;11.034;2022-11-27T02:56:27;10.15;;;4.43;;
75626;SDS011;64211;49.404;11.034;2022-11-27T02:58:57;9.98;;;4.35;;
75626;SDS011;64211;49.404;11.034;2022-11-27T03:01:26;9.60;;;4.53;;
75626;SDS011;64211;49.404;11.034;2022-11-27T03:03:56;9.57;;;4.05;;
75626;SDS011;64211;49.404;11.034;2022-11-27T03:06:28;14.88;;;4.40;;
75626;SDS011;64211;49.404;11.034;2022-11-27T03:09:02;9.73;;;3.97;;
75626;SDS011;64211;49.404;11.034;2022-11-27T03:14:01;8.45;;;3.97;;
75626;SDS011;64211;49.404;11.034;2022-11-27T03:16:34;8.30;;;3.40;;
75626;SDS011;64211;49.404;11.034;2022-11-27T03:21:43;11.15;;;4.05;;
75626;SDS011;64211;49.404;11.034;2022-11-27T03:24:13;9.85;;;3.95;;
75626;SDS011;64211;49.404;11.034;2022-11-27T03:26:40;15.02;;;4.40;;
75626;SDS011;64211;49.404;11.034;2022-11-27T03:29:08;12.85;;;4.53;;
75626;SDS011;64211;49.404;11.034;2022-11-27T03:31:39;10.57;;;4.20;;
75626;SDS011;64211;49.404;11.034;2022-11-27T03:34:06;8.82;;;4.13;;
75626;SDS011;64211;49.404;11.034;2022-11-27T03:36:33;11.52;;;4.38;;
75626;SDS011;64211;49.404;11.034;2022-11-27T03:38:59;12.35;;;4.57;;
75626;SDS011;64211;49.404;11.034;2022-11-27T03:41:35;8.25;;;3.55;;
75626;SDS011;64211;49.404;11.034;2022-11-27T03:58:21;11.07;;;4.63;;
75626;SDS011;64211;49.404;11.034;2022-11-27T04:00:56;9.65;;;4.05;;
75626;SDS011;64211;49.404;11.034;2022-11-27T04:03:26;11.25;;;4.70;;
75626;SDS011;64211;49.404;11.034;2022-11-27T04:05:55;8.45;;;3.97;;
75626;SDS011;64211;49.404;11.034;2022-11-27T04:08:22;9.32;;;4.38;;
75626;SDS011;64211;49.404;11.034;2022-11-27T04:10:48;8.00;;;4.10;;
75626;SDS011;64211;49.404;11.034;2022-11-27T04:13:15;11.02;;;4.40;;
75626;SDS011;64211;49.404;11.034;2022-11-27T04:15:41;8.57;;;4.00;;
75626;SDS011;64211;49.404;11.034;2022-11-27T04:18:08;11.95;;;4.53;;
75626;SDS011;64211;49.404;11.034;2022-11-27T04:20:34;8.85;;;4.25;;
75626;SDS011;64211;49.404;11.034;2022-11-27T04:23:01;11.30;;;4.75;;
75626;SDS011;64211;49.404;11.034;2022-11-27T04:25:27;10.98;;;4.95;;
75626;SDS011;64211;49.404;11.034;2022-11-27T04:27:54;12.50;;;4.85;;
75626;SDS011;64211;49.404;11.034;2022-11-27T04:30:20;10.93;;;4.60;;
75626;SDS011;64211;49.404;11.034;2022-11-27T04:32:47;11.93;;;5.30;;
75626;SDS011;64211;49.404;11.034;2022-11-27T04:35:13;14.60;;;7.32;;
75626;SDS011;64211;49.404;11.034;2022-11-27T04:37:40;14.60;;;7.30;;
75626;SDS011;64211;49.404;11.034;2022-11-27T04:40:06;13.40;;;6.38;;
75626;SDS011;64211;49.404;11.034;2022-11-27T04:42:33;18.48;;;6.68;;
75626;SDS011;64211;49.404;11.034;2022-11-27T04:45:00;15.85;;;6.75;;
75626;SDS011;64211;49.404;11.034;2022-11-27T04:47:26;14.82;;;7.32;;
75626;SDS011;64211;49.404;11.034;2022-11-27T04:49:52;16.17;;;6.18;;
75626;SDS011;64211;49.404;11.034;2022-11-27T04:52:19;14.35;;;6.15;;
75626;SDS011;64211;49.404;11.034;2022-11-27T04:54:45;16.27;;;8.00;;
75626;SDS011;64211;49.404;11.034;2022-11-27T04:57:12;12.57;;;5.57;;
75626;SDS011;64211;49.404;11.034;2022-11-27T04:59:38;11.65;;;4.97;;
75626;SDS011;64211;49.404;11.034;2022-11-27T05:02:04;11.25;;;4.57;;
75626;SDS011;64211;49.404;11.034;2022-11-27T05:04:31;12.65;;;5.07;;
75626;SDS011;64211;49.404;11.034;2022-11-27T05:06:57;12.10;;;4.70;;
75626;SDS011;64211;49.404;11.034;2022-11-27T05:09:24;11.55;;;5.05;;
75626;SDS011;64211;49.404;11.034;2022-11-27T05:11:50;16.13;;;5.50;;
75626;SDS011;64211;49.404;11.034;2022-11-27T05:14:17;11.52;;;5.13;;
75626;SDS011;64211;49.404;11.034;2022-11-27T05:16:44;12.75;;;5.82;;
75626;SDS011;64211;49.404;11.034;2022-11-27T05:19:15;9.98;;;4.28;;
75626;SDS011;64211;49.404;11.034;2022-11-27T05:21:43;11.82;;;5.10;;
75626;SDS011;64211;49.404;11.034;2022-11-27T05:24:11;12.23;;;4.45;;
75626;SDS011;64211;49.404;11.034;2022-11-27T05:26:38;13.63;;;5.25;;
75626;SDS011;64211;49.404;11.034;2022-11-27T05:29:06;13.45;;;4.75;;
75626;SDS011;64211;49.404;11.034;2022-11-27T05:31:34;12.35;;;4.60;;
75626;SDS011;64211;49.404;11.034;2022-11-27T05:34:01;11.05;;;3.83;;
75626;SDS011;64211;49.404;11.034;2022-11-27T05:36:28;11.13;;;4.53;;
75626;SDS011;64211;49.404;11.034;2022-11-27T05:38:55;12.70;;;4.97;;
75626;SDS011;64211;49.404;11.034;2022-11-27T05:41:21;11.48;;;4.32;;
75626;SDS011;64211;49.404;11.034;2022-11-27T05:43:48;13.55;;;4.85;;
75626;SDS011;64211;49.404;11.034;2022-11-27T05:46:16;13.50;;;5.30;;
75626;SDS011;64211;49.404;11.034;2022-11-27T05:48:43;13.77;;;4.53;;
75626;SDS011;64211;49.404;11.034;2022-11-27T05:51:10;14.10;;;4.93;;
75626;SDS011;64211;49.404;11.034;2022-11-27T05:53:36;17.40;;;5.38;;
75626;SDS011;64211;49.404;11.034;2022-11-27T05:56:03;12.93;;;4.28;;
75626;SDS011;64211;49.404;11.034;2022-11-27T05:58:36;10.25;;;4.03;;
75626;SDS011;64211;49.404;11.034;2022-11-27T06:01:04;12.25;;;4.55;;
75626;SDS011;64211;49.404;11.034;2022-11-27T06:03:31;11.50;;;4.30;;
75626;SDS011;64211;49.404;11.034;2022-11-27T06:06:03;12.85;;;5.00;;
75626;SDS011;64211;49.404;11.034;2022-11-27T06:08:31;11.43;;;4.10;;
75626;SDS011;64211;49.404;11.034;2022-11-27T06:10:57;13.30;;;4.80;;
75626;SDS011;64211;49.404;11.034;2022-11-27T06:13:24;12.00;;;4.32;;
75626;SDS011;64211;49.404;11.034;2022-11-27T06:15:50;11.07;;;4.43;;
75626;SDS011;64211;49.404;11.034;2022-11-27T06:18:16;11.93;;;4.05;;
75626;SDS011;64211;49.404;11.034;2022-11-27T06:20:43;10.82;;;4.55;;
75626;SDS011;64211;49.404;11.034;2022-11-27T06:23:15;11.23;;;3.90;;
75626;SDS011;64211;49.404;11.034;2022-11-27T06:25:41;12.32;;;4.65;;
75626;SDS011;64211;49.404;11.034;2022-11-27T06:28:08;13.50;;;4.60;;
75626;SDS011;64211;49.404;11.034;2022-11-27T06:30:35;11.80;;;4.65;;
75626;SDS011;64211;49.404;11.034;2022-11-27T06:33:02;10.73;;;3.50;;
75626;SDS011;64211;49.404;11.034;2022-11-27T06:35:29;12.30;;;4.57;;
75626;SDS011;64211;49.404;11.034;2022-11-27T06:37:55;10.23;;;4.07;;
75626;SDS011;64211;49.404;11.034;2022-11-27T06:40:21;13.25;;;4.40;;
75626;SDS011;64211;49.404;11.034;2022-11-27T06:42:48;13.15;;;4.68;;
75626;SDS011;64211;49.404;11.034;2022-11-27T06:45:14;10.48;;;4.43;;
75626;SDS011;64211;49.404;11.034;2022-11-27T06:47:41;8.80;;;3.88;;
75626;SDS011;64211;49.404;11.034;2022-11-27T06:50:07;10.60;;;4.38;;
75626;SDS011;64211;49.404;11.034;2022-11-27T06:52:34;14.80;;;4.40;;
75626;SDS011;64211;49.404;11.034;2022-11-27T06:55:05;12.63;;;4.93;;
75626;SDS011;64211;49.404;11.034;2022-11-27T06:57:32;16.58;;;6.03;;
75626;SDS011;64211;49.404;11.034;2022-11-27T06:59:58;13.77;;;5.80;;
75626;SDS011;64211;49.404;11.034;2022-11-27T07:02:25;23.00;;;7.10;;
75626;SDS011;64211;49.404;11.034;2022-11-27T07:04:51;13.55;;;5.28;;
75626;SDS011;64211;49.404;11.034;2022-11-27T07:07:18;19.90;;;6.68;;
75626;SDS011;64211;49.404;11.034;2022-11-27T07:09:44;15.95;;;5.88;;
75626;SDS011;64211;49.404;11.034;2022-11-27T07:12:11;17.55;;;6.00;;
75626;SDS011;64211;49.404;11.034;2022-11-27T07:14:37;18.38;;;6.28;;
75626;SDS011;64211;49.404;11.034;2022-11-27T07:17:04;18.27;;;6.13;;
75626;SDS011;64211;49.404;11.034;2022-11-27T07:19:30;19.73;;;6.75;;
75626;SDS011;64211;49.404;11.034;2022-11-27T07:21:57;14.55;;;5.57;;
75626;SDS011;64211;49.404;11.034;2022-11-27T07:24:23;13.43;;;4.88;;
75626;SDS011;64211;49.404;11.034;2022-11-27T07:26:50;12.48;;;4.35;;
75626;SDS011;64211;49.404;11.034;2022-11-27T07:29:16;16.27;;;5.85;;
75626;SDS011;64211;49.404;11.034;2022-11-27T07:31:42;20.27;;;8.00;;
75626;SDS011;64211;49.404;11.034;2022-11-27T07:34:09;12.82;;;4.40;;
75626;SDS011;64211;49.404;11.034;2022-11-27T07:36:44;14.20;;;6.38;;
75626;SDS011;64211;49.404;11.034;2022-11-27T07:39:11;14.18;;;4.97;;
75626;SDS011;64211;49.404;11.034;2022-11-27T07:41:37;15.98;;;6.70;;
75626;SDS011;64211;49.404;11.034;2022-11-27T07:44:04;14.85;;;6.18;;
75626;SDS011;64211;49.404;11.034;2022-11-27T07:46:30;20.60;;;7.65;;
75626;SDS011;64211;49.404;11.034;2022-11-27T07:48:57;21.02;;;7.63;;
75626;SDS011;64211;49.404;11.034;2022-11-27T07:51:25;20.52;;;6.47;;
75626;SDS011;64211;49.404;11.034;2022-11-27T07:53:52;20.05;;;6.75;;
75626;SDS011;64211;49.404;11.034;2022-11-27T07:56:19;27.60;;;8.88;;
75626;SDS011;64211;49.404;11.034;2022-11-27T07:58:46;35.63;;;12.15;;
75626;SDS011;64211;49.404;11.034;2022-11-27T08:01:15;25.10;;;8.30;;
75626;SDS011;64211;49.404;11.034;2022-11-27T08:03:43;21.67;;;7.60;;
75626;SDS011;64211;49.404;11.034;2022-11-27T08:06:17;23.40;;;7.38;;
75626;SDS011;64211;49.404;11.034;2022-11-27T08:08:48;19.33;;;7.70;;
75626;SDS011;64211;49.404;11.034;2022-11-27T08:13:47;21.70;;;6.88;;
75626;SDS011;64211;49.404;11.034;2022-11-27T08:16:14;16.80;;;6.18;;
75626;SDS011;64211;49.404;11.034;2022-11-27T08:18:40;16.40;;;5.45;;
75626;SDS011;64211;49.404;11.034;2022-11-27T08:21:07;16.50;;;5.35;;
75626;SDS011;64211;49.404;11.034;2022-11-27T08:23:33;11.55;;;4.60;;
75626;SDS011;64211;49.404;11.034;2022-11-27T08:26:03;15.98;;;6.00;;
75626;SDS011;64211;49.404;11.034;2022-11-27T08:28:30;19.40;;;6.00;;
75626;SDS011;64211;49.404;11.034;2022-11-27T08:30:57;12.25;;;4.72;;
75626;SDS011;64211;49.404;11.034;2022-11-27T08:33:24;14.02;;;6.03;;
75626;SDS011;64211;49.404;11.034;2022-11-27T08:35:51;14.93;;;5.43;;
75626;SDS011;64211;49.404;11.034;2022-11-27T08:38:18;13.57;;;5.43;;
75626;SDS011;64211;49.404;11.034;2022-11-27T08:41:04;13.90;;;5.13;;
75626;SDS011;64211;49.404;11.034;2022-11-27T08:43:32;12.82;;;5.03;;
75626;SDS011;64211;49.404;11.034;2022-11-27T08:45:58;15.65;;;6.18;;
75626;SDS011;64211;49.404;11.034;2022-11-27T08:48:29;14.20;;;5.85;;
75626;SDS011;64211;49.404;11.034;2022-11-27T08:50:57;14.27;;;4.43;;
75626;SDS011;64211;49.404;11.034;2022-11-27T08:53:23;12.25;;;5.75;;
75626;SDS011;64211;49.404;11.034;2022-11-27T08:55:50;13.85;;;5.63;;
75626;SDS011;64211;49.404;11.034;2022-11-27T08:58:16;15.27;;;6.63;;
75626;SDS011;64211;49.404;11.034;2022-11-27T09:00:43;14.25;;;6.18;;
75626;SDS011;64211;49.404;11.034;2022-11-27T09:03:10;12.45;;;5.38;;
75626;SDS011;64211;49.404;11.034;2022-11-27T09:05:39;14.10;;;5.25;;
75626;SDS011;64211;49.404;11.034;2022-11-27T09:08:07;11.70;;;5.13;;
75626;SDS011;64211;49.404;11.034;2022-11-27T09:10:33;13.05;;;4.80;;
75626;SDS011;64211;49.404;11.034;2022-11-27T09:13:02;12.90;;;4.85;;
75626;SDS011;64211;49.404;11.034;2022-11-27T09:15:28;12.93;;;5.07;;
75626;SDS011;64211;49.404;11.034;2022-11-27T09:17:54;12.05;;;4.13;;
75626;SDS011;64211;49.404;11.034;2022-11-27T09:20:21;10.75;;;4.65;;
75626;SDS011;64211;49.404;11.034;2022-11-27T09:22:47;11.20;;;4.55;;
75626;SDS011;64211;49.404;11.034;2022-11-27T09:25:14;11.70;;;4.88;;
75626;SDS011;64211;49.404;11.034;2022-11-27T09:27:40;11.50;;;5.60;;
75626;SDS011;64211;49.404;11.034;2022-11-27T09:30:07;14.07;;;5.47;;
75626;SDS011;64211;49.404;11.034;2022-11-27T09:32:34;13.45;;;5.47;;
75626;SDS011;64211;49.404;11.034;2022-11-27T09:35:00;10.90;;;4.70;;
75626;SDS011;64211;49.404;11.034;2022-11-27T09:37:27;14.27;;;5.80;;
75626;SDS011;64211;49.404;11.034;2022-11-27T09:39:53;20.20;;;8.38;;
75626;SDS011;64211;49.404;11.034;2022-11-27T09:42:30;21.50;;;8.57;;
75626;SDS011;64211;49.404;11.034;2022-11-27T09:45:12;24.88;;;9.38;;
75626;SDS011;64211;49.404;11.034;2022-11-27T09:47:49;18.30;;;6.70;;
75626;SDS011;64211;49.404;11.034;2022-11-27T09:50:26;12.15;;;4.97;;
75626;SDS011;64211;49.404;11.034;2022-11-27T09:53:00;10.48;;;4.35;;
75626;SDS011;64211;49.404;11.034;2022-11-27T09:55:39;10.57;;;3.75;;
75626;SDS011;64211;49.404;11.034;2022-11-27T09:58:22;11.20;;;4.22;;
75626;SDS011;64211;49.404;11.034;2022-11-27T10:01:12;10.90;;;4.68;;
75626;SDS011;64211;49.404;11.034;2022-11-27T10:03:41;10.80;;;4.22;;
75626;SDS011;64211;49.404;11.034;2022-11-27T10:11:52;12.85;;;5.32;;
75626;SDS011;64211;49.404;11.034;2022-11-27T10:14:41;9.18;;;3.90;;
75626;SDS011;64211;49.404;11.034;2022-11-27T10:17:16;13.15;;;4.63;;
75626;SDS011;64211;49.404;11.034;2022-11-27T10:19:53;11.20;;;3.72;;
75626;SDS011;64211;49.404;11.034;2022-11-27T10:22:49;10.75;;;4.57;;
75626;SDS011;64211;49.404;11.034;2022-11-27T10:25:46;18.20;;;8.60;;
75626;SDS011;64211;49.404;11.034;2022-11-27T10:28:18;16.33;;;6.75;;
75626;SDS011;64211;49.404;11.034;2022-11-27T10:31:02;16.50;;;7.03;;
75626;SDS011;64211;49.404;11.034;2022-11-27T10:33:45;13.38;;;6.43;;
75626;SDS011;64211;49.404;11.034;2022-11-27T10:36:33;13.05;;;5.00;;
75626;SDS011;64211;49.404;11.034;2022-11-27T10:39:04;14.18;;;4.75;;
75626;SDS011;64211;49.404;11.034;2022-11-27T10:41:44;15.02;;;5.35;;
75626;SDS011;64211;49.404;11.034;2022-11-27T10:44:22;11.32;;;5.07;;
75626;SDS011;64211;49.404;11.034;2022-11-27T10:46:54;10.00;;;4.47;;
75626;SDS011;64211;49.404;11.034;2022-11-27T10:49:26;10.52;;;4.90;;
75626;SDS011;64211;49.404;11.034;2022-11-27T10:51:52;12.70;;;5.18;;
75626;SDS011;64211;49.404;11.034;2022-11-27T10:54:25;10.55;;;4.75;;
75626;SDS011;64211;49.404;11.034;2022-11-27T10:59:44;11.20;;;4.80;;
75626;SDS011;64211;49.404;11.034;2022-11-27T11:02:27;11.55;;;4.60;;
75626;SDS011;64211;49.404;11.034;2022-11-27T11:04:56;10.60;;;4.07;;
75626;SDS011;64211;49.404;11.034;2022-11-27T11:07:51;10.57;;;4.53;;
75626;SDS011;64211;49.404;11.034;2022-11-27T11:10:44;10.85;;;4.68;;
75626;SDS011;64211;49.404;11.034;2022-11-27T11:13:16;9.25;;;4.55;;
75626;SDS011;64211;49.404;11.034;2022-11-27T11:15:51;8.27;;;4.07;;
75626;SDS011;64211;49.404;11.034;2022-11-27T11:18:33;9.00;;;4.10;;
75626;SDS011;64211;49.404;11.034;2022-11-27T11:21:12;10.93;;;4.25;;
75626;SDS011;64211;49.404;11.034;2022-11-27T11:23:42;11.30;;;4.15;;
75626;SDS011;64211;49.404;11.034;2022-11-27T11:26:23;9.35;;;4.07;;
75626;SDS011;64211;49.404;11.034;2022-11-27T11:28:53;8.85;;;3.88;;
75626;SDS011;64211;49.404;11.034;2022-11-27T11:31:34;15.82;;;5.28;;
75626;SDS011;64211;49.404;11.034;2022-11-27T11:34:04;16.10;;;5.65;;
75626;SDS011;64211;49.404;11.034;2022-11-27T11:36:40;15.85;;;7.22;;
75626;SDS011;64211;49.404;11.034;2022-11-27T11:39:24;19.55;;;7.07;;
75626;SDS011;64211;49.404;11.034;2022-11-27T11:41:53;19.25;;;7.13;;
75626;SDS011;64211;49.404;11.034;2022-11-27T11:44:21;22.00;;;8.00;;
75626;SDS011;64211;49.404;11.034;2022-11-27T11:46:51;11.38;;;5.28;;
75626;SDS011;64211;49.404;11.034;2022-11-27T11:49:26;13.23;;;5.35;;
75626;SDS011;64211;49.404;11.034;2022-11-27T12:01:22;14.77;;;5.65;;
75626;SDS011;64211;49.404;11.034;2022-11-27T12:06:35;9.02;;;4.35;;
75626;SDS011;64211;49.404;11.034;2022-11-27T12:17:27;9.07;;;4.43;;
75626;SDS011;64211;49.404;11.034;2022-11-27T12:20:17;8.63;;;4.43;;
75626;SDS011;64211;49.404;11.034;2022-11-27T12:31:38;8.13;;;4.18;;
75626;SDS011;64211;49.404;11.034;2022-11-27T12:37:08;7.13;;;3.55;;
75626;SDS011;64211;49.404;11.034;2022-11-27T12:42:38;10.30;;;4.28;;
75626;SDS011;64211;49.404;11.034;2022-11-27T12:45:14;8.18;;;3.92;;
75626;SDS011;64211;49.404;11.034;2022-11-27T12:47:48;7.30;;;3.65;;
75626;SDS011;64211;49.404;11.034;2022-11-27T12:50:25;8.93;;;4.10;;
75626;SDS011;64211;49.404;11.034;2022-11-27T12:53:05;10.35;;;4.28;;
75626;SDS011;64211;49.404;11.034;2022-11-27T12:55:37;11.57;;;4.50;;
75626;SDS011;64211;49.404;11.034;2022-11-27T12:58:20;8.80;;;4.13;;
75626;SDS011;64211;49.404;11.034;2022-11-27T13:00:55;8.48;;;4.20;;
75626;SDS011;64211;49.404;11.034;2022-11-27T13:03:30;9.68;;;4.65;;
75626;SDS011;64211;49.404;11.034;2022-11-27T13:06:04;9.90;;;4.28;;
75626;SDS011;64211;49.404;11.034;2022-11-27T13:08:44;9.27;;;4.75;;
75626;SDS011;64211;49.404;11.034;2022-11-27T13:11:19;9.93;;;4.82;;
75626;SDS011;64211;49.404;11.034;2022-11-27T13:13:52;10.38;;;4.82;;
75626;SDS011;64211;49.404;11.034;2022-11-27T13:16:38;12.40;;;5.80;;
75626;SDS011;64211;49.404;11.034;2022-11-27T13:19:29;9.50;;;4.78;;
75626;SDS011;64211;49.404;11.034;2022-11-27T13:21:58;11.15;;;4.63;;
75626;SDS011;64211;49.404;11.034;2022-11-27T13:24:28;12.48;;;4.70;;
75626;SDS011;64211;49.404;11.034;2022-11-27T13:29:43;10.32;;;4.55;;
75626;SDS011;64211;49.404;11.034;2022-11-27T13:32:17;12.15;;;4.22;;
75626;SDS011;64211;49.404;11.034;2022-11-27T13:34:47;10.35;;;5.07;;
75626;SDS011;64211;49.404;11.034;2022-11-27T13:37:27;12.60;;;5.28;;
75626;SDS011;64211;49.404;11.034;2022-11-27T13:39:57;13.45;;;5.38;;
75626;SDS011;64211;49.404;11.034;2022-11-27T13:42:43;9.48;;;4.57;;
75626;SDS011;64211;49.404;11.034;2022-11-27T13:45:24;11.15;;;4.72;;
75626;SDS011;64211;49.404;11.034;2022-11-27T13:47:53;9.52;;;4.30;;
75626;SDS011;64211;49.404;11.034;2022-11-27T13:50:22;11.43;;;4.82;;
75626;SDS011;64211;49.404;11.034;2022-11-27T13:52:57;11.88;;;4.43;;
75626;SDS011;64211;49.404;11.034;2022-11-27T13:55:29;9.13;;;4.28;;
75626;SDS011;64211;49.404;11.034;2022-11-27T13:57:58;12.15;;;4.60;;
75626;SDS011;64211;49.404;11.034;2022-11-27T14:00:34;11.85;;;4.70;;
75626;SDS011;64211;49.404;11.034;2022-11-27T14:03:04;13.73;;;4.90;;
75626;SDS011;64211;49.404;11.034;2022-11-27T14:05:35;10.98;;;5.07;;
75626;SDS011;64211;49.404;11.034;2022-11-27T14:08:14;10.90;;;5.07;;
75626;SDS011;64211;49.404;11.034;2022-11-27T14:10:51;13.75;;;5.28;;
75626;SDS011;64211;49.404;11.034;2022-11-27T14:13:21;10.73;;;4.82;;
75626;SDS011;64211;49.404;11.034;2022-11-27T14:16:00;10.20;;;4.85;;
75626;SDS011;64211;49.404;11.034;2022-11-27T14:18:30;11.70;;;4.32;;
75626;SDS011;64211;49.404;11.034;2022-11-27T14:20:58;12.63;;;4.55;;
75626;SDS011;64211;49.404;11.034;2022-11-27T14:23:31;12.90;;;4.45;;
75626;SDS011;64211;49.404;11.034;2022-11-27T14:26:04;15.57;;;6.47;;
75626;SDS011;64211;49.404;11.034;2022-11-27T14:28:44;10.35;;;4.70;;
75626;SDS011;64211;49.404;11.034;2022-11-27T14:31:33;13.07;;;5.18;;
75626;SDS011;64211;49.404;11.034;2022-11-27T14:34:01;12.43;;;4.85;;
75626;SDS011;64211;49.404;11.034;2022-11-27T14:36:49;15.85;;;5.57;;
75626;SDS011;64211;49.404;11.034;2022-11-27T14:39:23;11.23;;;4.43;;
75626;SDS011;64211;49.404;11.034;2022-11-27T14:42:03;13.52;;;5.20;;
75626;SDS011;64211;49.404;11.034;2022-11-27T14:44:44;11.18;;;4.75;;
75626;SDS011;64211;49.404;11.034;2022-11-27T14:47:14;13.07;;;4.95;;
75626;SDS011;64211;49.404;11.034;2022-11-27T14:49:51;11.93;;;4.65;;
75626;SDS011;64211;49.404;11.034;2022-11-27T14:52:21;12.95;;;5.13;;
75626;SDS011;64211;49.404;11.034;2022-11-27T14:54:48;12.10;;;5.13;;
75626;SDS011;64211;49.404;11.034;2022-11-27T14:57:18;11.95;;;4.25;;
75626;SDS011;64211;49.404;11.034;2022-11-27T14:59:59;10.13;;;4.60;;
75626;SDS011;64211;49.404;11.034;2022-11-27T15:02:36;16.27;;;7.18;;
75626;SDS011;64211;49.404;11.034;2022-11-27T15:05:03;18.33;;;7.95;;
75626;SDS011;64211;49.404;11.034;2022-11-27T15:07:31;18.10;;;6.35;;
75626;SDS011;64211;49.404;11.034;2022-11-27T15:10:29;15.73;;;6.40;;
75626;SDS011;64211;49.404;11.034;2022-11-27T15:13:07;16.25;;;6.07;;
75626;SDS011;64211;49.404;11.034;2022-11-27T15:15:51;11.50;;;4.93;;
75626;SDS011;64211;49.404;11.034;2022-11-27T15:18:21;10.88;;;5.15;;
75626;SDS011;64211;49.404;11.034;2022-11-27T15:20:49;13.70;;;5.88;;
75626;SDS011;64211;49.404;11.034;2022-11-27T15:23:18;11.88;;;4.93;;
75626;SDS011;64211;49.404;11.034;2022-11-27T15:28:28;13.38;;;5.28;;
75626;SDS011;64211;49.404;11.034;2022-11-27T15:31:01;13.68;;;5.43;;
75626;SDS011;64211;49.404;11.034;2022-11-27T15:33:53;10.85;;;4.80;;
75626;SDS011;64211;49.404;11.034;2022-11-27T15:36:24;11.68;;;5.13;;
75626;SDS011;64211;49.404;11.034;2022-11-27T15:38:51;11.45;;;4.82;;
75626;SDS011;64211;49.404;11.034;2022-11-27T15:41:30;9.68;;;4.22;;
75626;SDS011;64211;49.404;11.034;2022-11-27T15:43:56;10.95;;;4.38;;
75626;SDS011;64211;49.404;11.034;2022-11-27T15:46:24;12.80;;;4.95;;
75626;SDS011;64211;49.404;11.034;2022-11-27T15:48:55;9.50;;;4.15;;
75626;SDS011;64211;49.404;11.034;2022-11-27T15:51:22;8.35;;;4.20;;
75626;SDS011;64211;49.404;11.034;2022-11-27T15:53:48;12.20;;;4.68;;
75626;SDS011;64211;49.404;11.034;2022-11-27T15:56:15;11.23;;;4.45;;
75626;SDS011;64211;49.404;11.034;2022-11-27T15:58:42;10.40;;;4.50;;
75626;SDS011;64211;49.404;11.034;2022-11-27T16:01:09;8.82;;;4.35;;
75626;SDS011;64211;49.404;11.034;2022-11-27T16:03:36;10.55;;;4.78;;
75626;SDS011;64211;49.404;11.034;2022-11-27T16:06:05;11.80;;;4.68;;
75626;SDS011;64211;49.404;11.034;2022-11-27T16:08:33;10.48;;;4.72;;